Time;durP1;ratioP1;P1;durP2;ratioP2;P2;SDS_P1;SDS_P2;PMS_P1;PMS_P2;Temp;Humidity;BMP_temperature;BMP_pressure;BME280_temperature;BME280_humidity;BME280_pressure;Samples;Min_cycle;Max_cycle;Signal;HPM_P1;HPM_P2
2022/04/06 00:01:45;;;;;;;12.07;7.35;;;;;;;;;;5047851;28;20083;-50
2022/04/06 00:04:11;;;;;;;15.40;8.68;;;;;;;;;;5042382;28;20122;-49
2022/04/06 00:06:37;;;;;;;10.73;6.82;;;;;;;;;;5048865;28;20461;-49
2022/04/06 00:09:04;;;;;;;11.95;7.55;;;;;;;;;;5047735;28;20377;-51
2022/04/06 00:11:30;;;;;;;14.18;7.57;;;;;;;;;;5037508;28;20040;-52
2022/04/06 00:13:56;;;;;;;14.27;7.28;;;;;;;;;;5038654;28;20035;-53
2022/04/06 00:16:22;;;;;;;12.20;7.63;;;;;;;;;;5035638;28;20066;-52
2022/04/06 00:18:48;;;;;;;11.55;7.85;;;;;;;;;;5047721;28;20517;-52
2022/04/06 00:21:14;;;;;;;12.65;7.85;;;;;;;;;;5049791;28;20069;-53
2022/04/06 00:23:40;;;;;;;11.55;7.55;;;;;;;;;;5038478;28;20108;-50
2022/04/06 00:26:06;;;;;;;12.60;8.25;;;;;;;;;;5043184;28;20465;-51
2022/04/06 00:28:32;;;;;;;13.27;8.43;;;;;;;;;;5038826;28;20048;-49
2022/04/06 00:30:58;;;;;;;12.77;8.18;;;;;;;;;;5037928;28;20060;-50
2022/04/06 00:33:24;;;;;;;13.68;8.73;;;;;;;;;;5042780;28;20060;-50
2022/04/06 00:35:53;;;;;;;13.77;8.30;;;;;;;;;;5043171;28;20892;-49
2022/04/06 00:38:19;;;;;;;13.60;8.93;;;;;;;;;;5040489;28;20033;-51
2022/04/06 00:40:45;;;;;;;14.82;8.57;;;;;;;;;;5042223;28;20036;-51
2022/04/06 00:43:12;;;;;;;13.50;9.02;;;;;;;;;;5041714;28;20052;-52
2022/04/06 00:45:41;;;;;;;13.65;8.55;;;;;;;;;;5044510;28;20036;-50
2022/04/06 00:48:08;;;;;;;14.20;8.95;;;;;;;;;;5044394;28;20066;-51
2022/04/06 00:50:35;;;;;;;11.98;8.23;;;;;;;;;;5038600;28;20506;-51
2022/04/06 00:53:01;;;;;;;13.80;8.55;;;;;;;;;;5049788;28;20462;-49
2022/04/06 00:55:37;;;;;;;12.98;8.57;;;;;;;;;;5044837;28;20481;-53
2022/04/06 00:58:03;;;;;;;14.77;9.20;;;;;;;;;;5038590;28;20116;-50
2022/04/06 01:00:30;;;;;;;14.68;8.65;;;;;;;;;;5049233;28;20103;-54
2022/04/06 01:02:56;;;;;;;12.85;8.55;;;;;;;;;;5043222;28;20021;-55
2022/04/06 01:05:22;;;;;;;13.35;7.85;;;;;;;;;;5050398;28;20447;-50
2022/04/06 01:07:49;;;;;;;15.93;9.38;;;;;;;;;;5048162;28;20095;-50
2022/04/06 01:10:15;;;;;;;13.75;8.55;;;;;;;;;;5035669;28;20155;-50
2022/04/06 01:12:41;;;;;;;13.75;8.20;;;;;;;;;;5042036;28;20056;-50
2022/04/06 01:15:07;;;;;;;15.55;8.73;;;;;;;;;;5045072;28;20048;-51
2022/04/06 01:17:34;;;;;;;14.55;9.10;;;;;;;;;;5034664;28;20048;-49
2022/04/06 01:20:00;;;;;;;17.25;9.07;;;;;;;;;;5047168;28;20024;-50
2022/04/06 01:22:26;;;;;;;13.50;8.55;;;;;;;;;;5049495;28;20033;-50
2022/04/06 01:24:52;;;;;;;14.35;8.45;;;;;;;;;;5042436;28;20055;-51
2022/04/06 01:27:19;;;;;;;13.93;8.90;;;;;;;;;;5048039;28;20111;-50
2022/04/06 01:29:45;;;;;;;13.73;8.13;;;;;;;;;;5039688;28;20044;-49
2022/04/06 01:32:17;;;;;;;14.75;8.82;;;;;;;;;;5032744;28;20668;-50
2022/04/06 01:34:43;;;;;;;17.05;9.00;;;;;;;;;;5034985;28;20030;-51
2022/04/06 01:37:10;;;;;;;12.98;7.95;;;;;;;;;;5049685;28;20036;-52
2022/04/06 01:39:37;;;;;;;13.57;8.80;;;;;;;;;;5050020;28;20025;-49
2022/04/06 01:42:03;;;;;;;14.80;9.52;;;;;;;;;;5044653;28;20400;-51
2022/04/06 01:44:31;;;;;;;17.83;9.70;;;;;;;;;;5047990;28;20025;-51
2022/04/06 01:46:57;;;;;;;15.25;9.48;;;;;;;;;;5042108;28;20033;-52
2022/04/06 01:52:15;;;;;;;16.85;9.30;;;;;;;;;;5038180;28;20397;-51
2022/04/06 01:55:07;;;;;;;16.00;9.25;;;;;;;;;;5044370;28;20034;-51
2022/04/06 01:57:34;;;;;;;17.90;10.00;;;;;;;;;;5038533;28;20044;-49
2022/04/06 02:00:00;;;;;;;16.35;9.68;;;;;;;;;;5047639;28;20032;-50
2022/04/06 02:02:30;;;;;;;13.52;8.60;;;;;;;;;;5046891;28;20126;-49
2022/04/06 02:04:57;;;;;;;14.73;9.13;;;;;;;;;;5037562;28;20071;-53
2022/04/06 02:07:25;;;;;;;13.77;8.45;;;;;;;;;;5036589;28;20040;-50
2022/04/06 02:09:51;;;;;;;16.35;9.98;;;;;;;;;;5047856;28;20021;-51
2022/04/06 02:12:17;;;;;;;16.08;9.35;;;;;;;;;;5048831;28;20032;-49
2022/04/06 02:14:43;;;;;;;13.32;8.70;;;;;;;;;;5036576;28;20026;-49
2022/04/06 02:17:09;;;;;;;14.48;9.35;;;;;;;;;;5040003;28;20030;-53
2022/04/06 02:19:36;;;;;;;15.95;9.18;;;;;;;;;;5035162;28;20436;-52
2022/04/06 02:22:02;;;;;;;14.90;8.63;;;;;;;;;;5040845;28;20025;-51
2022/04/06 02:24:28;;;;;;;15.10;9.20;;;;;;;;;;5039172;28;20030;-50
2022/04/06 02:26:54;;;;;;;15.98;9.48;;;;;;;;;;5050990;28;20032;-49
2022/04/06 02:29:20;;;;;;;16.20;9.23;;;;;;;;;;5035602;28;20029;-52
2022/04/06 02:31:46;;;;;;;15.15;9.10;;;;;;;;;;5040055;28;20017;-49
2022/04/06 02:34:12;;;;;;;14.38;9.00;;;;;;;;;;5033259;28;20092;-49
2022/04/06 02:36:38;;;;;;;15.57;9.88;;;;;;;;;;5049954;28;20416;-52
2022/04/06 02:39:04;;;;;;;15.95;9.85;;;;;;;;;;5046690;28;20050;-50
2022/04/06 02:41:30;;;;;;;15.10;9.85;;;;;;;;;;5050976;28;20120;-50
2022/04/06 02:43:56;;;;;;;16.55;10.35;;;;;;;;;;5037026;28;20100;-53
2022/04/06 02:46:22;;;;;;;15.70;9.32;;;;;;;;;;5039843;28;20366;-51
2022/04/06 02:48:48;;;;;;;15.25;9.52;;;;;;;;;;5046613;28;20065;-52
2022/04/06 02:51:14;;;;;;;14.30;8.73;;;;;;;;;;5038103;28;20053;-52
2022/04/06 02:53:40;;;;;;;15.88;9.13;;;;;;;;;;5039164;28;20025;-50
2022/04/06 02:56:06;;;;;;;16.65;9.52;;;;;;;;;;5040250;28;20060;-52
2022/04/06 02:58:32;;;;;;;15.93;9.20;;;;;;;;;;5045712;28;20028;-51
2022/04/06 03:00:59;;;;;;;15.50;8.20;;;;;;;;;;5048723;28;20025;-49
2022/04/06 03:03:25;;;;;;;14.35;9.35;;;;;;;;;;5049570;28;20036;-49
2022/04/06 03:05:51;;;;;;;13.90;8.32;;;;;;;;;;5049573;28;20021;-51
2022/04/06 03:08:17;;;;;;;12.00;7.93;;;;;;;;;;5052078;28;20108;-51
2022/04/06 03:10:43;;;;;;;15.45;9.10;;;;;;;;;;5052124;28;20047;-50
2022/04/06 03:13:09;;;;;;;18.63;9.20;;;;;;;;;;5048459;28;20041;-51
2022/04/06 03:15:35;;;;;;;13.80;8.27;;;;;;;;;;5045255;28;20120;-50
2022/04/06 03:18:02;;;;;;;11.82;7.50;;;;;;;;;;5046204;28;20029;-49
2022/04/06 03:20:28;;;;;;;15.38;8.30;;;;;;;;;;5047484;28;20029;-49
2022/04/06 03:22:54;;;;;;;13.52;7.80;;;;;;;;;;5046054;28;20112;-49
2022/04/06 03:25:20;;;;;;;12.35;7.90;;;;;;;;;;5038632;28;20027;-51
2022/04/06 03:27:46;;;;;;;13.20;7.47;;;;;;;;;;5046817;28;20061;-49
2022/04/06 03:30:12;;;;;;;13.60;7.70;;;;;;;;;;5044605;28;20032;-49
2022/04/06 03:32:38;;;;;;;12.15;7.18;;;;;;;;;;5050959;28;20484;-49
2022/04/06 03:35:05;;;;;;;12.60;7.28;;;;;;;;;;5043377;28;20048;-50
2022/04/06 03:37:31;;;;;;;12.65;7.45;;;;;;;;;;5052726;28;20024;-50
2022/04/06 03:39:57;;;;;;;11.95;7.00;;;;;;;;;;5051177;28;20067;-50
2022/04/06 03:42:23;;;;;;;10.18;6.85;;;;;;;;;;5050270;28;20025;-49
2022/04/06 03:44:50;;;;;;;10.73;6.43;;;;;;;;;;5037666;28;20048;-53
2022/04/06 03:47:16;;;;;;;11.32;6.38;;;;;;;;;;5040544;28;20064;-50
2022/04/06 03:49:42;;;;;;;11.18;6.30;;;;;;;;;;5049841;28;20029;-49
2022/04/06 03:52:08;;;;;;;10.55;6.57;;;;;;;;;;5050923;28;20087;-51
2022/04/06 03:54:34;;;;;;;10.93;6.65;;;;;;;;;;5050816;28;20485;-49
2022/04/06 03:57:01;;;;;;;9.63;6.22;;;;;;;;;;5044914;28;20054;-51
2022/04/06 03:59:27;;;;;;;11.35;6.65;;;;;;;;;;5049432;28;20047;-50
2022/04/06 04:01:53;;;;;;;8.10;5.82;;;;;;;;;;5046264;28;20041;-49
2022/04/06 04:04:19;;;;;;;9.55;5.90;;;;;;;;;;5051867;28;20033;-49
2022/04/06 04:06:45;;;;;;;14.90;7.57;;;;;;;;;;5033285;28;20028;-51
2022/04/06 04:09:11;;;;;;;13.07;7.25;;;;;;;;;;5042525;28;20033;-51
2022/04/06 04:11:37;;;;;;;14.27;7.45;;;;;;;;;;5038397;28;20024;-50
2022/04/06 04:14:02;;;;;;;14.55;7.35;;;;;;;;;;5048429;28;20037;-50
2022/04/06 04:16:28;;;;;;;13.05;7.30;;;;;;;;;;5041354;28;20032;-50
2022/04/06 04:18:54;;;;;;;13.05;7.18;;;;;;;;;;5043318;28;20120;-50
2022/04/06 04:21:33;;;;;;;12.27;7.25;;;;;;;;;;5045941;28;20082;-50
2022/04/06 04:24:10;;;;;;;14.68;7.75;;;;;;;;;;5032578;28;20093;-52
2022/04/06 04:26:38;;;;;;;10.98;6.90;;;;;;;;;;5036036;28;20035;-52
2022/04/06 04:29:04;;;;;;;15.73;8.40;;;;;;;;;;5045122;28;20501;-53
2022/04/06 04:31:31;;;;;;;14.35;8.00;;;;;;;;;;5042968;28;20060;-50
2022/04/06 04:33:57;;;;;;;16.60;8.18;;;;;;;;;;5047087;28;20176;-49
2022/04/06 04:36:23;;;;;;;19.55;9.77;;;;;;;;;;5041189;28;20021;-54
2022/04/06 04:38:49;;;;;;;18.80;9.13;;;;;;;;;;5050378;28;20029;-50
2022/04/06 04:41:16;;;;;;;14.35;8.23;;;;;;;;;;5051460;28;20044;-55
2022/04/06 04:43:42;;;;;;;13.80;7.80;;;;;;;;;;5046233;28;20021;-49
2022/04/06 04:46:08;;;;;;;15.60;8.00;;;;;;;;;;5040748;28;20031;-50
2022/04/06 04:48:34;;;;;;;16.25;8.65;;;;;;;;;;5040712;28;20025;-49
2022/04/06 04:51:00;;;;;;;17.83;8.82;;;;;;;;;;5051800;28;20031;-49
2022/04/06 04:53:26;;;;;;;14.90;7.85;;;;;;;;;;5049359;28;20680;-50
2022/04/06 04:55:53;;;;;;;14.70;7.75;;;;;;;;;;5038670;28;20050;-51
2022/04/06 04:58:19;;;;;;;13.65;8.23;;;;;;;;;;5047577;28;20821;-49
2022/04/06 05:00:46;;;;;;;12.07;8.00;;;;;;;;;;5038443;28;20480;-52
2022/04/06 05:03:12;;;;;;;13.63;7.53;;;;;;;;;;5048633;28;20053;-53
2022/04/06 05:05:40;;;;;;;19.48;7.78;;;;;;;;;;5040721;28;20108;-49
2022/04/06 05:08:06;;;;;;;14.63;8.63;;;;;;;;;;5038945;28;20036;-49
2022/04/06 05:10:32;;;;;;;17.13;8.88;;;;;;;;;;5041972;28;20103;-51
2022/04/06 05:12:58;;;;;;;14.93;9.38;;;;;;;;;;5036151;28;20034;-50
2022/04/06 05:15:24;;;;;;;14.98;8.95;;;;;;;;;;5040958;28;20119;-50
2022/04/06 05:17:50;;;;;;;16.60;8.30;;;;;;;;;;5043343;28;20093;-49
2022/04/06 05:20:16;;;;;;;14.90;8.45;;;;;;;;;;5044284;28;20025;-49
2022/04/06 05:22:42;;;;;;;14.40;8.77;;;;;;;;;;5048112;28;20025;-50
2022/04/06 05:25:09;;;;;;;16.13;8.57;;;;;;;;;;5040731;28;20476;-51
2022/04/06 05:27:48;;;;;;;17.50;9.40;;;;;;;;;;5043301;28;20037;-54
2022/04/06 05:30:14;;;;;;;15.13;7.95;;;;;;;;;;5043317;28;20112;-50
2022/04/06 05:32:40;;;;;;;13.50;8.38;;;;;;;;;;5043346;28;20128;-53
2022/04/06 05:35:09;;;;;;;16.10;8.68;;;;;;;;;;5036773;28;20365;-53
2022/04/06 05:37:35;;;;;;;13.85;8.13;;;;;;;;;;5033871;28;20033;-50
2022/04/06 05:40:01;;;;;;;16.83;8.93;;;;;;;;;;5045470;28;20040;-51
2022/04/06 05:42:27;;;;;;;16.25;8.63;;;;;;;;;;5038660;28;20021;-52
2022/04/06 05:44:53;;;;;;;16.92;9.82;;;;;;;;;;5043035;28;20489;-54
2022/04/06 05:47:19;;;;;;;15.40;7.30;;;;;;;;;;5035060;28;20390;-51
2022/04/06 05:49:45;;;;;;;14.52;7.45;;;;;;;;;;5051633;28;20091;-51
2022/04/06 05:52:11;;;;;;;16.25;7.95;;;;;;;;;;5051403;28;20093;-49
2022/04/06 05:54:37;;;;;;;13.57;7.50;;;;;;;;;;5045490;28;20037;-49
2022/04/06 05:57:04;;;;;;;17.17;8.90;;;;;;;;;;5045797;28;20798;-53
2022/04/06 05:59:30;;;;;;;16.08;8.25;;;;;;;;;;5048755;28;20048;-49
2022/04/06 06:01:56;;;;;;;20.05;8.90;;;;;;;;;;5047570;28;20071;-50
2022/04/06 06:04:22;;;;;;;18.27;8.65;;;;;;;;;;5035482;28;20108;-55
2022/04/06 06:06:48;;;;;;;17.17;8.70;;;;;;;;;;5033784;28;20021;-52
2022/04/06 06:09:14;;;;;;;17.63;8.65;;;;;;;;;;5051177;28;20083;-53
2022/04/06 06:11:41;;;;;;;19.98;9.60;;;;;;;;;;5037278;28;20501;-51
2022/04/06 06:14:07;;;;;;;17.33;9.40;;;;;;;;;;5047084;28;20400;-55
2022/04/06 06:16:33;;;;;;;19.50;9.50;;;;;;;;;;5046351;28;20041;-51
2022/04/06 06:18:59;;;;;;;22.23;10.30;;;;;;;;;;5044115;28;20047;-53
2022/04/06 06:21:27;;;;;;;26.20;11.60;;;;;;;;;;5041130;28;20029;-55
2022/04/06 06:23:53;;;;;;;25.13;10.63;;;;;;;;;;5049289;28;20090;-50
2022/04/06 06:26:20;;;;;;;25.25;10.60;;;;;;;;;;5049166;28;20064;-51
2022/04/06 06:28:46;;;;;;;23.20;12.20;;;;;;;;;;5044046;28;20033;-52
2022/04/06 06:31:12;;;;;;;17.60;9.77;;;;;;;;;;5038724;28;20075;-50
2022/04/06 06:33:38;;;;;;;24.45;12.30;;;;;;;;;;5035647;28;20454;-52
2022/04/06 06:36:04;;;;;;;25.70;11.23;;;;;;;;;;5041157;28;20067;-51
2022/04/06 06:38:30;;;;;;;22.63;11.15;;;;;;;;;;5036893;28;20036;-51
2022/04/06 06:40:56;;;;;;;25.95;11.52;;;;;;;;;;5047149;28;20029;-49
2022/04/06 06:43:22;;;;;;;22.73;12.40;;;;;;;;;;5051170;28;20343;-52
2022/04/06 06:45:48;;;;;;;26.85;13.00;;;;;;;;;;5047117;28;20036;-52
2022/04/06 06:48:13;;;;;;;25.52;11.75;;;;;;;;;;5044036;28;20040;-52
2022/04/06 06:50:39;;;;;;;28.13;13.07;;;;;;;;;;5044540;28;20037;-49
2022/04/06 06:53:05;;;;;;;22.27;13.05;;;;;;;;;;5038370;28;20531;-51
2022/04/06 06:55:31;;;;;;;25.95;12.30;;;;;;;;;;5046869;28;20053;-52
2022/04/06 06:57:57;;;;;;;23.48;12.00;;;;;;;;;;5038812;28;20025;-53
2022/04/06 07:00:23;;;;;;;22.98;11.95;;;;;;;;;;5048508;28;20036;-51
2022/04/06 07:02:49;;;;;;;22.35;11.82;;;;;;;;;;5047566;28;20116;-54
2022/04/06 07:05:15;;;;;;;22.25;11.40;;;;;;;;;;5042549;28;20032;-53
2022/04/06 07:07:50;;;;;;;22.75;10.95;;;;;;;;;;5045790;28;20044;-50
2022/04/06 07:10:16;;;;;;;23.98;11.73;;;;;;;;;;5049386;28;20029;-50
2022/04/06 07:12:43;;;;;;;23.27;11.23;;;;;;;;;;5047136;28;20078;-49
2022/04/06 07:15:09;;;;;;;25.00;11.90;;;;;;;;;;5041331;28;20091;-50
2022/04/06 07:17:35;;;;;;;22.38;12.00;;;;;;;;;;5049790;28;20039;-50
2022/04/06 07:20:01;;;;;;;21.27;11.35;;;;;;;;;;5036171;28;20489;-49
2022/04/06 07:22:27;;;;;;;21.58;10.75;;;;;;;;;;5034267;28;20108;-49
2022/04/06 07:24:53;;;;;;;23.23;10.82;;;;;;;;;;5038683;28;20509;-50
2022/04/06 07:27:19;;;;;;;20.00;11.00;;;;;;;;;;5044420;28;20124;-49
2022/04/06 07:29:45;;;;;;;17.42;9.38;;;;;;;;;;5045200;28;20243;-50
2022/04/06 07:32:10;;;;;;;18.73;9.75;;;;;;;;;;5050283;28;20029;-50
2022/04/06 07:34:37;;;;;;;20.75;9.95;;;;;;;;;;5044561;28;20040;-54
2022/04/06 07:37:03;;;;;;;16.25;9.95;;;;;;;;;;5050061;28;20084;-55
2022/04/06 07:39:29;;;;;;;23.30;9.40;;;;;;;;;;5040320;28;20107;-49
2022/04/06 07:41:58;;;;;;;17.58;9.43;;;;;;;;;;5045212;28;20123;-50
2022/04/06 07:44:24;;;;;;;16.17;9.18;;;;;;;;;;5043484;28;20029;-50
2022/04/06 07:46:51;;;;;;;15.75;8.38;;;;;;;;;;5046596;28;20032;-51
2022/04/06 07:49:17;;;;;;;16.85;8.30;;;;;;;;;;5044156;28;20104;-50
2022/04/06 07:51:43;;;;;;;17.00;8.18;;;;;;;;;;5051441;28;20033;-51
2022/04/06 07:54:09;;;;;;;13.95;7.63;;;;;;;;;;5048729;28;20033;-50
2022/04/06 07:56:36;;;;;;;16.63;8.25;;;;;;;;;;5052178;28;20060;-49
2022/04/06 07:59:02;;;;;;;15.35;7.22;;;;;;;;;;5053580;28;20024;-49
2022/04/06 08:01:29;;;;;;;14.07;6.65;;;;;;;;;;5039902;28;20029;-49
2022/04/06 08:03:55;;;;;;;13.95;6.53;;;;;;;;;;5048697;28;20037;-51
2022/04/06 08:06:22;;;;;;;12.27;6.55;;;;;;;;;;5044868;28;20124;-49
2022/04/06 08:08:51;;;;;;;12.65;6.63;;;;;;;;;;5040755;28;20029;-51
2022/04/06 08:11:17;;;;;;;12.38;6.20;;;;;;;;;;5051527;28;20025;-52
2022/04/06 08:13:43;;;;;;;16.02;6.03;;;;;;;;;;5051701;28;20033;-51
2022/04/06 08:16:09;;;;;;;15.43;5.82;;;;;;;;;;5044322;28;20033;-52
2022/04/06 08:18:35;;;;;;;13.52;5.22;;;;;;;;;;5052554;28;20680;-52
2022/04/06 08:21:01;;;;;;;12.25;5.20;;;;;;;;;;5037878;28;20525;-52
2022/04/06 08:23:28;;;;;;;12.93;6.45;;;;;;;;;;5037373;28;20030;-51
2022/04/06 08:25:53;;;;;;;12.98;5.40;;;;;;;;;;5045777;28;20018;-54
2022/04/06 08:28:20;;;;;;;9.00;5.05;;;;;;;;;;5052621;28;20039;-51
2022/04/06 08:30:47;;;;;;;10.65;5.72;;;;;;;;;;5039759;28;20064;-50
2022/04/06 08:33:13;;;;;;;10.27;5.15;;;;;;;;;;5050175;28;20806;-50
2022/04/06 08:35:40;;;;;;;10.75;5.65;;;;;;;;;;5052589;28;20128;-50
2022/04/06 08:38:06;;;;;;;11.98;5.72;;;;;;;;;;5038705;28;20033;-50
2022/04/06 08:40:33;;;;;;;11.70;6.05;;;;;;;;;;5049892;28;20021;-48
2022/04/06 08:42:59;;;;;;;11.85;5.82;;;;;;;;;;5047595;28;20116;-48
2022/04/06 08:45:25;;;;;;;10.55;5.70;;;;;;;;;;5040763;28;20511;-50
2022/04/06 08:47:52;;;;;;;11.82;5.15;;;;;;;;;;5044531;28;20103;-51
2022/04/06 08:50:19;;;;;;;8.68;5.15;;;;;;;;;;5041687;28;20031;-54
2022/04/06 08:52:46;;;;;;;8.55;5.25;;;;;;;;;;5044879;28;20116;-49
2022/04/06 08:55:13;;;;;;;9.85;5.03;;;;;;;;;;5051466;28;20521;-52
2022/04/06 08:57:40;;;;;;;10.57;4.93;;;;;;;;;;5041003;28;20029;-51
2022/04/06 09:00:06;;;;;;;11.38;4.88;;;;;;;;;;5035900;28;20343;-50
2022/04/06 09:02:32;;;;;;;12.95;5.10;;;;;;;;;;5048171;28;20021;-51
2022/04/06 09:04:58;;;;;;;10.75;5.18;;;;;;;;;;5039122;28;20041;-51
2022/04/06 09:07:25;;;;;;;8.75;4.80;;;;;;;;;;5034976;28;20087;-50
2022/04/06 09:09:55;;;;;;;10.55;5.13;;;;;;;;;;5043701;28;20048;-51
2022/04/06 09:12:24;;;;;;;14.05;4.70;;;;;;;;;;5047364;28;20361;-49
2022/04/06 09:15:07;;;;;;;12.20;5.07;;;;;;;;;;5040039;28;20476;-49
2022/04/06 09:17:43;;;;;;;10.77;5.38;;;;;;;;;;5040212;28;20470;-49
2022/04/06 09:20:10;;;;;;;8.70;4.45;;;;;;;;;;5039282;28;20045;-49
2022/04/06 09:22:37;;;;;;;11.23;4.70;;;;;;;;;;5041753;28;20404;-51
2022/04/06 09:25:05;;;;;;;9.93;4.30;;;;;;;;;;5035467;28;20021;-50
2022/04/06 09:27:31;;;;;;;7.78;4.28;;;;;;;;;;5039982;28;20104;-53
2022/04/06 09:29:58;;;;;;;9.55;4.13;;;;;;;;;;5042801;28;20379;-54
2022/04/06 09:32:24;;;;;;;10.68;5.13;;;;;;;;;;5040999;28;20036;-53
2022/04/06 09:34:50;;;;;;;10.23;4.72;;;;;;;;;;5048627;28;20037;-52
2022/04/06 09:37:29;;;;;;;8.75;5.00;;;;;;;;;;5046847;28;20082;-53
2022/04/06 09:39:58;;;;;;;15.50;5.50;;;;;;;;;;5038890;28;20155;-49
2022/04/06 09:42:28;;;;;;;8.07;5.15;;;;;;;;;;5044776;28;20028;-51
2022/04/06 09:47:40;;;;;;;9.15;4.88;;;;;;;;;;5047390;28;20044;-50
2022/04/06 09:50:10;;;;;;;11.73;5.60;;;;;;;;;;5042373;28;20037;-49
2022/04/06 09:52:36;;;;;;;10.02;5.30;;;;;;;;;;5044135;28;20552;-51
2022/04/06 09:55:06;;;;;;;10.00;5.38;;;;;;;;;;5038459;28;20080;-54
2022/04/06 09:57:34;;;;;;;12.30;4.90;;;;;;;;;;5039311;28;20424;-49
2022/04/06 10:00:00;;;;;;;12.32;5.90;;;;;;;;;;5049292;28;20021;-51
2022/04/06 10:02:26;;;;;;;9.68;5.13;;;;;;;;;;5044043;28;20108;-48
2022/04/06 10:04:53;;;;;;;12.23;5.15;;;;;;;;;;5050069;28;20021;-49
2022/04/06 10:07:19;;;;;;;12.55;5.63;;;;;;;;;;5043552;28;20025;-53
2022/04/06 10:09:45;;;;;;;14.77;5.63;;;;;;;;;;5051299;28;20028;-51
2022/04/06 10:12:11;;;;;;;11.95;5.45;;;;;;;;;;5050102;28;20033;-51
2022/04/06 10:14:37;;;;;;;11.40;5.40;;;;;;;;;;5043195;28;20079;-53
2022/04/06 10:17:04;;;;;;;10.43;5.75;;;;;;;;;;5039073;28;20024;-52
2022/04/06 10:19:35;;;;;;;11.25;5.70;;;;;;;;;;5046550;28;20037;-52
2022/04/06 10:22:05;;;;;;;12.23;4.70;;;;;;;;;;5040965;28;20358;-49
2022/04/06 10:24:55;;;;;;;12.10;5.35;;;;;;;;;;5045283;28;20104;-50
2022/04/06 10:27:26;;;;;;;9.93;5.15;;;;;;;;;;5042743;28;20106;-50
2022/04/06 10:30:11;;;;;;;10.88;5.65;;;;;;;;;;5043116;28;20031;-51
2022/04/06 10:32:38;;;;;;;8.43;4.13;;;;;;;;;;5037451;28;20028;-47
2022/04/06 10:35:24;;;;;;;11.23;5.32;;;;;;;;;;5040774;28;20030;-48
2022/04/06 10:37:51;;;;;;;7.50;3.85;;;;;;;;;;5047643;28;21323;-50
2022/04/06 10:40:17;;;;;;;12.95;4.43;;;;;;;;;;5046052;28;20075;-47
2022/04/06 10:42:45;;;;;;;8.27;4.38;;;;;;;;;;5038622;28;20079;-49
2022/04/06 10:45:29;;;;;;;6.30;3.88;;;;;;;;;;5039848;28;20414;-48
2022/04/06 10:48:14;;;;;;;9.52;4.65;;;;;;;;;;5038988;28;20116;-49
2022/04/06 10:50:43;;;;;;;5.45;3.75;;;;;;;;;;5044762;28;20060;-48
2022/04/06 10:53:21;;;;;;;8.18;3.78;;;;;;;;;;5039864;28;20358;-48
2022/04/06 10:56:11;;;;;;;8.75;4.10;;;;;;;;;;5035890;28;20056;-47
2022/04/06 10:58:56;;;;;;;8.38;4.20;;;;;;;;;;5048873;28;20065;-48
2022/04/06 11:01:26;;;;;;;10.77;4.70;;;;;;;;;;5038235;28;20025;-49
2022/04/06 11:03:56;;;;;;;13.98;4.55;;;;;;;;;;5048194;28;20021;-47
2022/04/06 11:06:44;;;;;;;12.05;4.72;;;;;;;;;;5036819;28;20045;-50
2022/04/06 11:12:19;;;;;;;11.13;4.95;;;;;;;;;;5039047;28;20027;-49
2022/04/06 11:14:47;;;;;;;7.72;4.80;;;;;;;;;;5043473;28;20029;-50
2022/04/06 11:17:34;;;;;;;7.57;4.35;;;;;;;;;;5036563;28;20029;-50
2022/04/06 11:20:02;;;;;;;9.07;4.72;;;;;;;;;;5044176;28;20078;-48
2022/04/06 11:22:28;;;;;;;9.23;4.00;;;;;;;;;;5037221;28;20025;-48
2022/04/06 11:24:54;;;;;;;9.90;4.47;;;;;;;;;;5052769;28;20095;-47
2022/04/06 11:27:30;;;;;;;9.43;4.50;;;;;;;;;;5041547;28;20024;-48
2022/04/06 11:30:00;;;;;;;11.27;5.25;;;;;;;;;;5038799;28;20037;-51
2022/04/06 11:32:26;;;;;;;9.82;5.03;;;;;;;;;;5041574;28;20144;-50
2022/04/06 11:34:58;;;;;;;7.82;5.30;;;;;;;;;;5048759;28;20093;-50
2022/04/06 11:37:24;;;;;;;8.60;5.10;;;;;;;;;;5043119;28;20021;-50
2022/04/06 11:39:50;;;;;;;8.68;4.20;;;;;;;;;;5048168;28;20032;-49
2022/04/06 11:42:21;;;;;;;11.93;4.90;;;;;;;;;;5040804;28;20033;-49
2022/04/06 11:44:47;;;;;;;9.40;5.15;;;;;;;;;;5043807;28;20056;-50
2022/04/06 11:47:12;;;;;;;11.95;4.95;;;;;;;;;;5045566;28;20037;-50
2022/04/06 11:49:39;;;;;;;8.82;4.65;;;;;;;;;;5043006;28;20036;-49
2022/04/06 11:52:05;;;;;;;8.93;5.47;;;;;;;;;;5048198;28;20504;-50
2022/04/06 11:54:31;;;;;;;8.57;4.60;;;;;;;;;;5040806;28;20025;-50
2022/04/06 11:56:58;;;;;;;14.90;5.35;;;;;;;;;;5036821;28;20033;-49
2022/04/06 11:59:24;;;;;;;10.70;5.10;;;;;;;;;;5051988;28;20474;-54
2022/04/06 12:01:51;;;;;;;7.85;4.25;;;;;;;;;;5028407;28;20115;-49
2022/04/06 12:04:22;;;;;;;12.68;4.78;;;;;;;;;;5038714;28;20021;-55
2022/04/06 12:06:49;;;;;;;7.78;4.30;;;;;;;;;;5053160;28;20025;-53
2022/04/06 12:09:15;;;;;;;8.98;4.68;;;;;;;;;;5038989;28;20064;-51
2022/04/06 12:11:41;;;;;;;10.88;4.38;;;;;;;;;;5040933;28;20481;-50
2022/04/06 12:14:11;;;;;;;7.35;4.30;;;;;;;;;;5046451;28;20032;-54
2022/04/06 12:16:38;;;;;;;7.68;3.83;;;;;;;;;;5036474;28;20381;-51
2022/04/06 12:19:08;;;;;;;8.48;4.28;;;;;;;;;;5043543;28;20040;-49
2022/04/06 12:21:39;;;;;;;7.28;4.72;;;;;;;;;;5043805;28;20025;-50
2022/04/06 12:24:05;;;;;;;8.18;4.70;;;;;;;;;;5048500;28;20050;-52
2022/04/06 12:26:39;;;;;;;9.65;4.70;;;;;;;;;;5044941;28;20039;-50
2022/04/06 12:29:05;;;;;;;12.20;4.90;;;;;;;;;;5036476;28;20776;-49
2022/04/06 12:31:35;;;;;;;8.18;4.15;;;;;;;;;;5049940;28;20029;-50
2022/04/06 12:34:01;;;;;;;8.15;3.85;;;;;;;;;;5035397;28;20408;-50
2022/04/06 12:36:30;;;;;;;7.57;4.10;;;;;;;;;;5036203;28;20033;-52
2022/04/06 12:39:15;;;;;;;8.63;4.05;;;;;;;;;;5044674;28;20199;-50
2022/04/06 12:41:51;;;;;;;6.57;3.60;;;;;;;;;;5041152;28;20105;-54
2022/04/06 12:44:17;;;;;;;11.40;3.85;;;;;;;;;;5051763;28;20025;-50
2022/04/06 12:46:44;;;;;;;7.18;2.97;;;;;;;;;;5032461;28;20098;-51
2022/04/06 12:49:27;;;;;;;4.25;2.88;;;;;;;;;;5035355;28;20037;-49
2022/04/06 12:52:07;;;;;;;7.82;3.05;;;;;;;;;;5040324;28;20032;-50
2022/04/06 12:54:33;;;;;;;5.60;3.40;;;;;;;;;;5041263;28;20033;-49
2022/04/06 12:57:26;;;;;;;10.20;2.85;;;;;;;;;;5049796;28;20064;-52
2022/04/06 12:59:59;;;;;;;7.15;3.53;;;;;;;;;;5045269;28;20168;-52
2022/04/06 13:02:25;;;;;;;;;;;;;;;;;;5038028;28;20033;-49
2022/04/06 13:04:52;;;;;;;7.65;3.65;;;;;;;;;;5043894;28;19913;-53
2022/04/06 13:07:18;;;;;;;7.90;3.58;;;;;;;;;;5037157;28;20029;-50
2022/04/06 13:09:50;;;;;;;7.95;3.30;;;;;;;;;;5038298;28;20024;-52
2022/04/06 13:12:15;;;;;;;6.22;3.38;;;;;;;;;;5040945;28;20040;-49
2022/04/06 13:14:41;;;;;;;7.53;3.33;;;;;;;;;;5045903;28;20028;-51
2022/04/06 13:17:07;;;;;;;6.18;3.13;;;;;;;;;;5039963;28;20031;-49
2022/04/06 13:19:33;;;;;;;5.78;2.83;;;;;;;;;;5040334;28;20038;-49
2022/04/06 13:21:59;;;;;;;8.27;3.20;;;;;;;;;;5037668;28;20052;-52
2022/04/06 13:24:25;;;;;;;6.60;3.20;;;;;;;;;;5041636;28;20029;-50
2022/04/06 13:26:51;;;;;;;6.32;3.33;;;;;;;;;;5042258;28;20013;-49
2022/04/06 13:29:18;;;;;;;5.47;2.85;;;;;;;;;;5037319;28;20111;-50
2022/04/06 13:31:44;;;;;;;5.90;3.33;;;;;;;;;;5039939;28;20057;-50
2022/04/06 13:34:12;;;;;;;5.00;3.40;;;;;;;;;;5041454;28;20572;-48
2022/04/06 13:36:38;;;;;;;6.07;3.38;;;;;;;;;;5040967;28;20108;-54
2022/04/06 13:39:05;;;;;;;7.45;3.58;;;;;;;;;;5036146;28;20504;-48
2022/04/06 13:41:31;;;;;;;4.80;2.53;;;;;;;;;;5034212;28;20537;-50
2022/04/06 13:43:57;;;;;;;5.93;2.80;;;;;;;;;;5037458;28;20030;-47
2022/04/06 13:46:23;;;;;;;8.38;3.10;;;;;;;;;;5038599;28;20033;-51
2022/04/06 13:48:49;;;;;;;3.42;2.78;;;;;;;;;;5033129;28;20056;-50
2022/04/06 13:51:16;;;;;;;7.45;3.20;;;;;;;;;;5038849;28;20024;-50
2022/04/06 13:53:42;;;;;;;5.75;2.50;;;;;;;;;;5040402;28;20033;-49
2022/04/06 13:56:08;;;;;;;6.53;3.50;;;;;;;;;;5036684;28;20386;-49
2022/04/06 13:58:34;;;;;;;6.38;3.17;;;;;;;;;;5038601;28;20067;-52
2022/04/06 14:01:01;;;;;;;3.90;2.40;;;;;;;;;;5042236;28;20025;-51
2022/04/06 14:03:27;;;;;;;5.30;2.67;;;;;;;;;;5039294;28;20028;-52
2022/04/06 14:05:55;;;;;;;6.20;2.90;;;;;;;;;;5035784;28;20029;-55
2022/04/06 14:08:22;;;;;;;5.07;2.55;;;;;;;;;;5037457;28;20121;-49
2022/04/06 14:10:49;;;;;;;4.90;2.65;;;;;;;;;;5034661;28;20033;-50
2022/04/06 14:13:16;;;;;;;6.03;2.65;;;;;;;;;;5041682;28;20113;-49
2022/04/06 14:15:42;;;;;;;5.47;2.90;;;;;;;;;;5039110;28;20036;-53
2022/04/06 14:18:08;;;;;;;5.30;3.22;;;;;;;;;;5047682;28;20033;-54
2022/04/06 14:20:34;;;;;;;7.45;3.20;;;;;;;;;;5037812;28;20506;-52
2022/04/06 14:23:00;;;;;;;4.13;2.83;;;;;;;;;;5037810;28;20033;-48
2022/04/06 14:25:26;;;;;;;7.40;3.38;;;;;;;;;;5040659;28;20025;-49
2022/04/06 14:27:52;;;;;;;9.63;3.70;;;;;;;;;;5041672;28;20033;-49
2022/04/06 14:30:19;;;;;;;7.50;3.08;;;;;;;;;;5031388;28;20493;-50
2022/04/06 14:32:45;;;;;;;5.95;3.80;;;;;;;;;;5036758;28;20110;-49
2022/04/06 14:35:12;;;;;;;8.10;3.95;;;;;;;;;;5037973;28;20044;-51
2022/04/06 14:37:39;;;;;;;6.93;4.05;;;;;;;;;;5039779;28;20033;-52
2022/04/06 14:40:05;;;;;;;6.28;3.58;;;;;;;;;;5037366;28;20024;-54
2022/04/06 14:42:31;;;;;;;7.35;3.83;;;;;;;;;;5039762;28;20112;-54
2022/04/06 14:44:57;;;;;;;6.00;3.88;;;;;;;;;;5033466;28;20025;-50